Time;durP1;ratioP1;P1;durP2;ratioP2;P2;SDS_P1;SDS_P2;PMS_P1;PMS_P2;Temp;Humidity;BMP_temperature;BMP_pressure;BME280_temperature;BME280_humidity;BME280_pressure;Samples;Min_cycle;Max_cycle;Signal;HPM_P1;HPM_P2
2020/12/30 00:03:45;;;;;;;0.20;0.20;;;;;;;;;;10177979;29;20135;-65
2020/12/30 00:08:48;;;;;;;0.30;0.30;;;;;;;;;;10177134;29;20056;-65
2020/12/30 00:13:49;;;;;;;0.30;0.30;;;;;;;;;;10178453;29;20544;-65
2020/12/30 00:18:51;;;;;;;0.30;0.30;;;;;;;;;;10180816;29;20135;-65
2020/12/30 00:23:53;;;;;;;0.30;0.30;;;;;;;;;;10179798;29;20050;-66
2020/12/30 00:28:55;;;;;;;0.30;0.30;;;;;;;;;;10180125;29;20047;-66
2020/12/30 00:33:57;;;;;;;0.25;0.25;;;;;;;;;;10179238;29;20060;-65
2020/12/30 00:38:59;;;;;;;0.20;0.20;;;;;;;;;;10177525;29;20051;-66
2020/12/30 00:44:01;;;;;;;0.30;0.30;;;;;;;;;;10178423;29;20155;-65
2020/12/30 00:49:03;;;;;;;0.32;0.32;;;;;;;;;;10179196;29;20080;-65
2020/12/30 00:54:05;;;;;;;0.20;0.20;;;;;;;;;;10178073;29;20374;-65
2020/12/30 00:59:07;;;;;;;0.30;0.30;;;;;;;;;;10178905;29;20056;-66
2020/12/30 01:04:09;;;;;;;0.20;0.20;;;;;;;;;;10177942;29;20052;-66
2020/12/30 01:09:11;;;;;;;0.20;0.20;;;;;;;;;;10177421;29;20087;-66
2020/12/30 01:14:13;;;;;;;0.30;0.30;;;;;;;;;;10173928;29;20076;-65
2020/12/30 01:19:15;;;;;;;0.30;0.30;;;;;;;;;;10173188;29;20087;-66
2020/12/30 01:24:18;;;;;;;0.30;0.30;;;;;;;;;;10173814;29;20122;-65
2020/12/30 01:29:20;;;;;;;0.30;0.30;;;;;;;;;;10170070;29;20150;-66
2020/12/30 01:34:22;;;;;;;0.30;0.30;;;;;;;;;;10170756;29;20063;-66
2020/12/30 01:39:24;;;;;;;0.30;0.30;;;;;;;;;;10170161;29;20103;-65
2020/12/30 01:44:26;;;;;;;0.30;0.30;;;;;;;;;;10172505;29;20062;-66
2020/12/30 01:49:28;;;;;;;0.30;0.30;;;;;;;;;;10170898;29;20060;-66
2020/12/30 01:54:31;;;;;;;0.40;0.40;;;;;;;;;;10171430;29;20052;-66
2020/12/30 01:59:32;;;;;;;0.30;0.30;;;;;;;;;;10171112;29;20081;-65
2020/12/30 02:04:39;;;;;;;0.40;0.40;;;;;;;;;;10165229;29;20056;-65
2020/12/30 02:09:42;;;;;;;0.28;0.28;;;;;;;;;;10167380;29;20052;-65
2020/12/30 02:14:43;;;;;;;0.20;0.20;;;;;;;;;;10172527;29;20048;-65
2020/12/30 02:19:46;;;;;;;0.20;0.20;;;;;;;;;;10171101;29;20048;-65
2020/12/30 02:24:48;;;;;;;0.30;0.30;;;;;;;;;;10167909;29;20463;-66
2020/12/30 02:29:50;;;;;;;0.30;0.30;;;;;;;;;;10166941;29;20123;-65
2020/12/30 02:34:53;;;;;;;0.20;0.20;;;;;;;;;;10167750;29;20408;-65
2020/12/30 02:39:55;;;;;;;0.20;0.20;;;;;;;;;;10169743;29;20080;-66
2020/12/30 02:45:06;;;;;;;0.20;0.20;;;;;;;;;;10169413;29;20143;-65
2020/12/30 02:50:07;;;;;;;0.20;0.20;;;;;;;;;;10170163;29;20138;-67
2020/12/30 02:55:10;;;;;;;0.20;0.20;;;;;;;;;;10167303;29;20131;-65
2020/12/30 03:00:12;;;;;;;0.20;0.20;;;;;;;;;;10169919;29;20051;-65
2020/12/30 03:05:13;;;;;;;0.30;0.30;;;;;;;;;;10166286;29;20135;-65
2020/12/30 03:10:16;;;;;;;0.22;0.22;;;;;;;;;;10169144;29;20606;-66
2020/12/30 03:15:17;;;;;;;0.30;0.30;;;;;;;;;;10169480;29;20092;-66
2020/12/30 03:20:19;;;;;;;0.30;0.30;;;;;;;;;;10170492;29;20059;-66
2020/12/30 03:25:22;;;;;;;0.30;0.30;;;;;;;;;;10167361;29;20479;-65
2020/12/30 03:30:23;;;;;;;0.30;0.30;;;;;;;;;;10168417;29;20058;-65
2020/12/30 03:35:25;;;;;;;0.30;0.30;;;;;;;;;;10167595;29;20184;-65
2020/12/30 03:40:27;;;;;;;0.30;0.30;;;;;;;;;;10169044;29;20143;-65
2020/12/30 03:45:29;;;;;;;0.33;0.33;;;;;;;;;;10168006;29;20056;-65
2020/12/30 03:50:31;;;;;;;0.28;0.28;;;;;;;;;;10169673;29;20063;-65
2020/12/30 03:55:34;;;;;;;0.30;0.30;;;;;;;;;;10166861;29;20412;-65
2020/12/30 04:00:35;;;;;;;0.73;0.73;;;;;;;;;;10167749;29;20044;-66
2020/12/30 04:05:37;;;;;;;0.30;0.30;;;;;;;;;;10164537;29;20568;-65
2020/12/30 04:10:39;;;;;;;0.20;0.20;;;;;;;;;;10168126;29;20060;-65
2020/12/30 04:15:41;;;;;;;0.30;0.30;;;;;;;;;;10168164;29;20046;-66
2020/12/30 04:20:43;;;;;;;0.30;0.30;;;;;;;;;;10167142;29;20056;-66
2020/12/30 04:25:48;;;;;;;0.20;0.20;;;;;;;;;;10166251;29;20040;-66
2020/12/30 04:30:49;;;;;;;0.20;0.20;;;;;;;;;;10168299;29;20048;-65
2020/12/30 04:35:51;;;;;;;0.25;0.25;;;;;;;;;;10167738;29;20147;-65
2020/12/30 04:40:57;;;;;;;0.20;0.20;;;;;;;;;;10170147;29;20080;-65
2020/12/30 04:45:59;;;;;;;0.60;0.60;;;;;;;;;;10166187;29;20130;-66
2020/12/30 04:51:02;;;;;;;0.22;0.22;;;;;;;;;;10171397;29;20111;-66
2020/12/30 04:56:04;;;;;;;0.20;0.20;;;;;;;;;;10174507;29;20136;-67
2020/12/30 05:01:07;;;;;;;0.40;0.40;;;;;;;;;;10172109;29;20139;-66
2020/12/30 05:06:09;;;;;;;0.30;0.30;;;;;;;;;;10174339;29;20114;-66
2020/12/30 05:11:11;;;;;;;0.20;0.20;;;;;;;;;;10171458;29;20048;-66
2020/12/30 05:16:13;;;;;;;0.20;0.20;;;;;;;;;;10172016;29;20135;-65
2020/12/30 05:21:15;;;;;;;0.40;0.40;;;;;;;;;;10172109;29;20098;-66
2020/12/30 05:26:17;;;;;;;0.30;0.30;;;;;;;;;;10173021;29;20147;-65
2020/12/30 05:31:19;;;;;;;0.20;0.20;;;;;;;;;;10170767;29;20143;-65
2020/12/30 05:36:23;;;;;;;0.20;0.20;;;;;;;;;;10174193;29;20119;-66
2020/12/30 05:41:26;;;;;;;0.30;0.30;;;;;;;;;;10171542;29;20066;-65
2020/12/30 05:46:28;;;;;;;0.40;0.40;;;;;;;;;;10170684;29;20123;-65
2020/12/30 05:51:30;;;;;;;0.20;0.20;;;;;;;;;;10171239;29;20080;-66
2020/12/30 05:56:34;;;;;;;0.20;0.20;;;;;;;;;;10171310;29;20071;-65
2020/12/30 06:01:39;;;;;;;0.20;0.20;;;;;;;;;;10170718;29;20440;-65
2020/12/30 06:06:43;;;;;;;0.30;0.30;;;;;;;;;;10172067;29;20496;-65
2020/12/30 06:11:52;;;;;;;0.10;0.10;;;;;;;;;;10170768;29;20052;-65
2020/12/30 06:16:54;;;;;;;0.20;0.20;;;;;;;;;;10170303;29;20449;-65
2020/12/30 06:21:58;;;;;;;0.20;0.20;;;;;;;;;;10170361;29;20052;-65
2020/12/30 06:27:02;;;;;;;0.30;0.30;;;;;;;;;;10168634;29;20044;-66
2020/12/30 06:32:04;;;;;;;0.20;0.20;;;;;;;;;;10170283;29;20056;-65
2020/12/30 06:37:06;;;;;;;0.20;0.20;;;;;;;;;;10168676;29;20479;-66
2020/12/30 06:42:08;;;;;;;0.30;0.30;;;;;;;;;;10169056;29;20060;-66
2020/12/30 06:47:11;;;;;;;0.20;0.20;;;;;;;;;;10171507;29;20063;-65
2020/12/30 06:52:25;;;;;;;0.30;0.30;;;;;;;;;;10169102;29;20071;-66
2020/12/30 06:57:37;;;;;;;0.28;0.28;;;;;;;;;;10167734;29;20048;-66
2020/12/30 07:02:39;;;;;;;0.13;0.13;;;;;;;;;;10168558;29;20118;-66
2020/12/30 07:07:41;;;;;;;0.17;0.17;;;;;;;;;;10168140;29;20052;-66
2020/12/30 07:12:44;;;;;;;0.20;0.20;;;;;;;;;;10169884;29;20094;-66
2020/12/30 07:17:46;;;;;;;0.53;0.53;;;;;;;;;;10168683;29;20512;-65
2020/12/30 07:22:48;;;;;;;0.20;0.20;;;;;;;;;;10167509;29;20062;-66
2020/12/30 07:27:54;;;;;;;0.20;0.20;;;;;;;;;;10169314;29;20415;-66
2020/12/30 07:32:57;;;;;;;0.30;0.30;;;;;;;;;;10162634;29;20108;-66
2020/12/30 07:38:01;;;;;;;0.30;0.30;;;;;;;;;;10167708;29;20052;-66
2020/12/30 07:43:04;;;;;;;0.30;0.30;;;;;;;;;;10168594;29;20048;-66
2020/12/30 07:48:08;;;;;;;0.30;0.30;;;;;;;;;;10168508;29;20048;-66
2020/12/30 07:53:17;;;;;;;0.30;0.30;;;;;;;;;;10165970;29;20519;-66
2020/12/30 07:58:19;;;;;;;0.20;0.20;;;;;;;;;;10167034;29;20148;-67
2020/12/30 08:03:21;;;;;;;0.40;0.40;;;;;;;;;;10166309;29;20052;-67
2020/12/30 08:08:23;;;;;;;0.22;0.22;;;;;;;;;;10166865;29;20052;-66
2020/12/30 08:13:25;;;;;;;0.65;0.65;;;;;;;;;;10165837;29;20044;-67
2020/12/30 08:18:27;;;;;;;0.20;0.20;;;;;;;;;;10168151;29;20056;-66
2020/12/30 08:23:29;;;;;;;0.20;0.20;;;;;;;;;;10169730;29;20060;-66
2020/12/30 08:28:32;;;;;;;0.20;0.20;;;;;;;;;;10174059;29;20142;-66
2020/12/30 08:33:34;;;;;;;0.28;0.28;;;;;;;;;;10173261;29;20176;-66
2020/12/30 08:38:38;;;;;;;0.20;0.20;;;;;;;;;;10173492;29;20068;-66
2020/12/30 08:43:43;;;;;;;0.20;0.20;;;;;;;;;;10172790;29;20088;-66
2020/12/30 08:48:48;;;;;;;0.20;0.20;;;;;;;;;;10175846;29;20048;-66
2020/12/30 08:53:50;;;;;;;0.30;0.30;;;;;;;;;;10172548;29;20135;-65
2020/12/30 08:58:53;;;;;;;0.20;0.20;;;;;;;;;;10173833;29;20051;-65
2020/12/30 09:04:08;;;;;;;0.17;0.17;;;;;;;;;;10171226;29;20099;-65
2020/12/30 09:09:10;;;;;;;0.20;0.20;;;;;;;;;;10173258;29;20103;-66
2020/12/30 09:14:16;;;;;;;0.17;0.17;;;;;;;;;;10173551;29;20075;-66
2020/12/30 09:19:18;;;;;;;0.10;0.10;;;;;;;;;;10174612;29;20056;-66
2020/12/30 09:24:23;;;;;;;0.35;0.35;;;;;;;;;;10169387;29;20100;-66
2020/12/30 09:29:25;;;;;;;0.10;0.10;;;;;;;;;;10172252;29;20056;-66
2020/12/30 09:34:30;;;;;;;0.20;0.20;;;;;;;;;;10172916;29;20107;-66
2020/12/30 09:39:32;;;;;;;0.20;0.20;;;;;;;;;;10170316;29;20083;-66
2020/12/30 09:44:35;;;;;;;0.10;0.10;;;;;;;;;;10171204;29;20072;-66
2020/12/30 09:49:36;;;;;;;0.20;0.20;;;;;;;;;;10171179;29;20078;-66
2020/12/30 09:54:38;;;;;;;0.20;0.20;;;;;;;;;;10168757;29;20415;-66
2020/12/30 09:59:41;;;;;;;0.20;0.20;;;;;;;;;;10171280;29;20139;-66
2020/12/30 10:04:42;;;;;;;0.20;0.20;;;;;;;;;;10169628;29;20044;-66
2020/12/30 10:09:44;;;;;;;0.20;0.20;;;;;;;;;;10170120;29;20107;-66
2020/12/30 10:14:47;;;;;;;0.17;0.17;;;;;;;;;;10173490;29;20105;-66
2020/12/30 10:19:49;;;;;;;0.30;0.30;;;;;;;;;;10169854;29;20397;-66
2020/12/30 10:24:50;;;;;;;0.20;0.20;;;;;;;;;;10169896;29;20748;-66
2020/12/30 10:29:53;;;;;;;0.20;0.20;;;;;;;;;;10170177;29;20054;-66
2020/12/30 10:34:54;;;;;;;0.20;0.20;;;;;;;;;;10169742;29;20056;-66
2020/12/30 10:39:56;;;;;;;0.10;0.10;;;;;;;;;;10167244;29;20056;-65
2020/12/30 10:44:59;;;;;;;0.38;0.38;;;;;;;;;;10168705;29;20052;-65
2020/12/30 10:50:00;;;;;;;0.30;0.30;;;;;;;;;;10169247;29;20052;-66
2020/12/30 10:55:02;;;;;;;0.30;0.30;;;;;;;;;;10168400;29;20106;-66
2020/12/30 11:00:05;;;;;;;0.10;0.10;;;;;;;;;;10168978;29;20132;-67
2020/12/30 11:05:06;;;;;;;0.20;0.20;;;;;;;;;;10164819;29;20420;-66
2020/12/30 11:10:08;;;;;;;0.20;0.20;;;;;;;;;;10167666;29;20060;-67
2020/12/30 11:15:11;;;;;;;0.10;0.10;;;;;;;;;;10169102;29;20132;-67
2020/12/30 11:20:12;;;;;;;0.20;0.20;;;;;;;;;;10167155;29;20134;-67
2020/12/30 11:25:14;;;;;;;0.10;0.10;;;;;;;;;;10169493;29;20555;-67
2020/12/30 11:30:17;;;;;;;0.10;0.10;;;;;;;;;;10167966;29;20059;-67
2020/12/30 11:35:18;;;;;;;0.10;0.10;;;;;;;;;;10168644;29;20062;-67
2020/12/30 11:40:20;;;;;;;0.10;0.10;;;;;;;;;;10168261;29;20147;-67
2020/12/30 11:45:23;;;;;;;0.10;0.10;;;;;;;;;;10168141;29;20519;-67
2020/12/30 11:50:25;;;;;;;0.10;0.10;;;;;;;;;;10169158;29;20150;-68
2020/12/30 11:55:27;;;;;;;0.10;0.10;;;;;;;;;;10163787;29;20087;-68
2020/12/30 12:00:29;;;;;;;0.40;0.40;;;;;;;;;;10166565;29;20095;-68
2020/12/30 12:05:31;;;;;;;0.20;0.20;;;;;;;;;;10166137;29;20134;-67
2020/12/30 12:10:33;;;;;;;0.25;0.25;;;;;;;;;;10168353;29;20508;-68
2020/12/30 12:15:35;;;;;;;0.10;0.10;;;;;;;;;;10166719;29;20044;-69
2020/12/30 12:20:37;;;;;;;0.30;0.30;;;;;;;;;;10168157;29;20052;-68
2020/12/30 12:25:42;;;;;;;0.20;0.20;;;;;;;;;;10166282;29;20138;-67
2020/12/30 12:30:44;;;;;;;0.10;0.10;;;;;;;;;;10166887;29;20055;-67
2020/12/30 12:35:46;;;;;;;0.20;0.20;;;;;;;;;;10164143;29;20060;-67
2020/12/30 12:40:48;;;;;;;0.20;0.20;;;;;;;;;;10163930;29;20131;-67
2020/12/30 12:45:50;;;;;;;1.20;1.10;;;;;;;;;;10164977;29;20555;-66
2020/12/30 12:50:52;;;;;;;0.10;0.10;;;;;;;;;;10165622;29;20054;-67
2020/12/30 12:55:54;;;;;;;20.27;1.20;;;;;;;;;;10164799;29;20135;-68
2020/12/30 13:00:56;;;;;;;0.20;0.20;;;;;;;;;;10165295;29;20063;-68
2020/12/30 13:05:58;;;;;;;0.20;0.20;;;;;;;;;;10162713;29;20056;-68
2020/12/30 13:11:00;;;;;;;0.20;0.20;;;;;;;;;;10171642;29;20594;-68
2020/12/30 13:16:02;;;;;;;0.20;0.20;;;;;;;;;;10169332;29;20052;-68
2020/12/30 13:21:04;;;;;;;0.20;0.20;;;;;;;;;;10172731;29;20052;-68
2020/12/30 13:26:05;;;;;;;0.20;0.20;;;;;;;;;;10172604;29;20050;-68
2020/12/30 13:31:11;;;;;;;0.13;0.13;;;;;;;;;;10172287;29;20507;-68
2020/12/30 13:36:18;;;;;;;0.20;0.20;;;;;;;;;;10169800;29;20060;-68
2020/12/30 13:41:20;;;;;;;0.20;0.20;;;;;;;;;;10169670;29;20048;-67
2020/12/30 13:46:25;;;;;;;0.20;0.20;;;;;;;;;;10170431;29;20052;-68
2020/12/30 13:51:27;;;;;;;0.30;0.30;;;;;;;;;;10170265;29;20501;-68
2020/12/30 13:56:29;;;;;;;0.52;0.52;;;;;;;;;;10172553;29;20062;-68
2020/12/30 14:01:31;;;;;;;0.20;0.20;;;;;;;;;;10170164;29;20131;-68
2020/12/30 14:06:33;;;;;;;0.20;0.20;;;;;;;;;;10171258;29;20040;-68
2020/12/30 14:11:35;;;;;;;0.20;0.20;;;;;;;;;;10169726;29;20119;-68
2020/12/30 14:16:42;;;;;;;0.20;0.20;;;;;;;;;;10169723;29;20048;-67
2020/12/30 14:21:44;;;;;;;0.10;0.10;;;;;;;;;;10169267;29;20056;-70
2020/12/30 14:26:45;;;;;;;0.65;0.65;;;;;;;;;;10170060;29;20091;-68
2020/12/30 14:31:51;;;;;;;0.20;0.20;;;;;;;;;;10170199;29;20134;-68
2020/12/30 14:36:52;;;;;;;0.10;0.10;;;;;;;;;;10169910;29;20239;-69
2020/12/30 14:41:54;;;;;;;0.20;0.20;;;;;;;;;;10169607;29;20138;-69
2020/12/30 14:46:57;;;;;;;0.20;0.20;;;;;;;;;;10168907;29;20040;-68
2020/12/30 14:51:58;;;;;;;0.20;0.20;;;;;;;;;;10168837;29;20052;-68
2020/12/30 14:57:00;;;;;;;0.30;0.30;;;;;;;;;;10167431;29;20112;-68
2020/12/30 15:02:03;;;;;;;0.20;0.20;;;;;;;;;;10168861;29;20161;-68
2020/12/30 15:07:04;;;;;;;0.13;0.13;;;;;;;;;;10167711;29;20054;-68
2020/12/30 15:12:06;;;;;;;0.32;0.32;;;;;;;;;;10167821;29;20597;-68
2020/12/30 15:17:09;;;;;;;0.20;0.20;;;;;;;;;;10169095;29;20044;-68
2020/12/30 15:22:11;;;;;;;1.27;1.17;;;;;;;;;;10168931;29;20132;-69
2020/12/30 15:27:12;;;;;;;0.15;0.15;;;;;;;;;;10165628;29;20500;-68
2020/12/30 15:32:15;;;;;;;0.20;0.20;;;;;;;;;;10167977;29;20099;-68
2020/12/30 15:37:16;;;;;;;0.10;0.10;;;;;;;;;;10165578;29;20416;-68
2020/12/30 15:42:18;;;;;;;0.10;0.10;;;;;;;;;;10164186;29;20074;-68
2020/12/30 15:47:22;;;;;;;0.20;0.20;;;;;;;;;;10167162;29;20079;-68
2020/12/30 15:52:25;;;;;;;0.20;0.20;;;;;;;;;;10165243;29;20131;-68
2020/12/30 15:57:26;;;;;;;0.10;0.10;;;;;;;;;;10164291;29;20059;-68
2020/12/30 16:02:29;;;;;;;0.50;0.50;;;;;;;;;;10167574;29;20072;-68
2020/12/30 16:07:31;;;;;;;0.67;0.67;;;;;;;;;;10165099;29;20067;-68
2020/12/30 16:12:32;;;;;;;0.30;0.30;;;;;;;;;;10167615;29;20055;-69
2020/12/30 16:17:35;;;;;;;0.30;0.30;;;;;;;;;;10165571;29;20466;-69
2020/12/30 16:22:37;;;;;;;0.22;0.22;;;;;;;;;;10166384;29;20135;-68
2020/12/30 16:27:39;;;;;;;0.20;0.20;;;;;;;;;;10166870;29;20064;-69
2020/12/30 16:32:41;;;;;;;0.30;0.30;;;;;;;;;;10165446;29;20063;-69
2020/12/30 16:37:43;;;;;;;0.20;0.20;;;;;;;;;;10166053;29;20481;-68
2020/12/30 16:42:45;;;;;;;0.20;0.20;;;;;;;;;;10168866;29;20508;-68
2020/12/30 16:47:47;;;;;;;0.30;0.30;;;;;;;;;;10172244;29;20064;-68
2020/12/30 16:52:49;;;;;;;0.33;0.33;;;;;;;;;;10174067;29;20048;-68
2020/12/30 16:57:51;;;;;;;0.70;0.70;;;;;;;;;;10172375;29;20052;-68
2020/12/30 17:02:53;;;;;;;6.82;3.38;;;;;;;;;;10172595;29;20532;-69
2020/12/30 17:07:55;;;;;;;0.10;0.10;;;;;;;;;;10172591;29;20170;-68
2020/12/30 17:12:57;;;;;;;0.25;0.25;;;;;;;;;;10172907;29;20143;-70
2020/12/30 17:17:59;;;;;;;0.20;0.20;;;;;;;;;;10174381;29;20048;-68
2020/12/30 17:23:01;;;;;;;0.43;0.43;;;;;;;;;;10171148;29;20135;-70
2020/12/30 17:28:03;;;;;;;0.20;0.20;;;;;;;;;;10171311;29;20139;-70
2020/12/30 17:33:05;;;;;;;0.30;0.30;;;;;;;;;;10170269;29;20047;-70
2020/12/30 17:38:09;;;;;;;0.10;0.10;;;;;;;;;;10171639;29;20191;-69
2020/12/30 17:43:11;;;;;;;0.30;0.30;;;;;;;;;;10172369;29;20079;-69
2020/12/30 17:48:13;;;;;;;0.30;0.30;;;;;;;;;;10170297;29;20552;-69
2020/12/30 17:53:15;;;;;;;0.30;0.30;;;;;;;;;;10171130;29;20048;-70
2020/12/30 17:58:17;;;;;;;0.35;0.35;;;;;;;;;;10171754;29;20449;-70
2020/12/30 18:03:19;;;;;;;0.30;0.30;;;;;;;;;;10171296;29;20150;-70
2020/12/30 18:08:21;;;;;;;0.47;0.47;;;;;;;;;;10171738;29;20056;-69
2020/12/30 18:13:23;;;;;;;0.30;0.30;;;;;;;;;;10169582;29;20141;-70
2020/12/30 18:18:25;;;;;;;0.30;0.30;;;;;;;;;;10168779;29;20044;-70
2020/12/30 18:23:27;;;;;;;0.20;0.20;;;;;;;;;;10170539;29;20131;-69
2020/12/30 18:28:29;;;;;;;0.20;0.20;;;;;;;;;;10170655;29;20701;-67
2020/12/30 18:33:31;;;;;;;0.30;0.30;;;;;;;;;;10169307;29;20452;-67
2020/12/30 18:38:33;;;;;;;0.40;0.40;;;;;;;;;;10171238;29;20540;-67
2020/12/30 18:43:34;;;;;;;0.25;0.25;;;;;;;;;;10168782;29;20146;-66
2020/12/30 18:48:37;;;;;;;0.30;0.30;;;;;;;;;;10170008;29;20092;-67
2020/12/30 18:53:39;;;;;;;0.30;0.30;;;;;;;;;;10170040;29;20078;-66
2020/12/30 18:58:41;;;;;;;0.30;0.30;;;;;;;;;;10170836;29;20088;-67
2020/12/30 19:03:43;;;;;;;0.20;0.20;;;;;;;;;;10170685;29;20040;-67
2020/12/30 19:08:46;;;;;;;0.70;0.70;;;;;;;;;;10167413;29;20052;-67
2020/12/30 19:13:48;;;;;;;0.20;0.20;;;;;;;;;;10168105;29;20496;-67
2020/12/30 19:18:51;;;;;;;0.20;0.20;;;;;;;;;;10170745;29;20096;-67
2020/12/30 19:23:53;;;;;;;0.30;0.30;;;;;;;;;;10168547;29;20127;-67
2020/12/30 19:28:55;;;;;;;0.20;0.20;;;;;;;;;;10168761;29;20091;-67
2020/12/30 19:33:57;;;;;;;0.30;0.30;;;;;;;;;;10167866;29;20056;-67
2020/12/30 19:39:01;;;;;;;0.33;0.33;;;;;;;;;;10168327;29;20058;-67
2020/12/30 19:44:03;;;;;;;0.25;0.25;;;;;;;;;;10167143;29;20059;-68
2020/12/30 19:49:05;;;;;;;0.82;0.82;;;;;;;;;;10167052;29;20134;-67
2020/12/30 19:54:07;;;;;;;0.20;0.20;;;;;;;;;;10165285;29;20597;-68
2020/12/30 19:59:09;;;;;;;0.77;0.77;;;;;;;;;;10165895;29;20059;-68
2020/12/30 20:04:12;;;;;;;0.70;0.70;;;;;;;;;;10166161;29;20456;-67
2020/12/30 20:09:13;;;;;;;0.20;0.20;;;;;;;;;;10164405;29;20044;-67
2020/12/30 20:14:15;;;;;;;0.43;0.43;;;;;;;;;;10166509;29;20162;-66
2020/12/30 20:19:18;;;;;;;0.20;0.20;;;;;;;;;;10171173;29;20052;-67
2020/12/30 20:24:19;;;;;;;0.95;0.95;;;;;;;;;;10176016;29;20052;-67
2020/12/30 20:29:21;;;;;;;0.50;0.50;;;;;;;;;;10174090;29;20623;-67
2020/12/30 20:34:24;;;;;;;0.20;0.20;;;;;;;;;;10175904;29;20052;-67
2020/12/30 20:39:25;;;;;;;1.50;1.33;;;;;;;;;;10173530;29;20052;-67
2020/12/30 20:44:28;;;;;;;0.30;0.30;;;;;;;;;;10174228;29;20405;-69
2020/12/30 20:49:31;;;;;;;0.30;0.30;;;;;;;;;;10174313;29;20151;-67
2020/12/30 20:54:33;;;;;;;0.35;0.35;;;;;;;;;;10172476;29;20055;-66
2020/12/30 20:59:34;;;;;;;0.30;0.30;;;;;;;;;;10173703;29;20131;-68
2020/12/30 21:04:37;;;;;;;0.63;0.63;;;;;;;;;;10171149;29;20040;-66
2020/12/30 21:09:41;;;;;;;0.20;0.20;;;;;;;;;;10172626;29;20215;-66
2020/12/30 21:14:43;;;;;;;0.50;0.50;;;;;;;;;;10169510;29;20093;-65
2020/12/30 21:19:45;;;;;;;0.20;0.20;;;;;;;;;;10171731;29;20048;-66
2020/12/30 21:24:47;;;;;;;0.30;0.30;;;;;;;;;;10171692;29;20056;-66
2020/12/30 21:29:49;;;;;;;0.38;0.38;;;;;;;;;;10170576;29;20062;-67
2020/12/30 21:34:51;;;;;;;0.30;0.30;;;;;;;;;;10169619;29;20838;-67
2020/12/30 21:39:53;;;;;;;0.40;0.40;;;;;;;;;;10173993;29;20058;-67
2020/12/30 21:44:55;;;;;;;0.90;0.75;;;;;;;;;;10170530;29;20080;-67
2020/12/30 21:49:58;;;;;;;0.30;0.30;;;;;;;;;;10170651;29;20048;-67
2020/12/30 21:54:59;;;;;;;0.40;0.40;;;;;;;;;;10170020;29;20755;-67
2020/12/30 22:00:01;;;;;;;0.30;0.30;;;;;;;;;;10171399;29;20076;-67
2020/12/30 22:05:04;;;;;;;0.30;0.30;;;;;;;;;;10169861;29;20055;-67
2020/12/30 22:10:06;;;;;;;0.20;0.20;;;;;;;;;;10171778;29;20052;-67
2020/12/30 22:15:08;;;;;;;0.40;0.40;;;;;;;;;;10169868;29;20055;-67
2020/12/30 22:20:10;;;;;;;0.20;0.20;;;;;;;;;;10171108;29;20183;-67
2020/12/30 22:25:12;;;;;;;0.30;0.30;;;;;;;;;;10168738;29;20072;-67
2020/12/30 22:30:13;;;;;;;0.90;0.90;;;;;;;;;;10170578;29;20058;-67
2020/12/30 22:35:16;;;;;;;0.20;0.20;;;;;;;;;;10169949;29;20139;-67
2020/12/30 22:40:17;;;;;;;0.77;0.63;;;;;;;;;;10169137;29;20087;-66
2020/12/30 22:45:19;;;;;;;0.30;0.30;;;;;;;;;;10152471;29;20055;-67
2020/12/30 22:50:22;;;;;;;0.30;0.30;;;;;;;;;;10169711;29;20527;-67
2020/12/30 22:55:23;;;;;;;0.60;0.60;;;;;;;;;;10167464;29;20159;-66
2020/12/30 23:00:25;;;;;;;0.28;0.28;;;;;;;;;;10168941;29;20040;-67
2020/12/30 23:05:28;;;;;;;0.50;0.50;;;;;;;;;;10165913;29;20135;-67
2020/12/30 23:10:29;;;;;;;0.30;0.30;;;;;;;;;;10168070;29;21394;-66
2020/12/30 23:15:31;;;;;;;0.30;0.30;;;;;;;;;;10169547;29;20477;-68
2020/12/30 23:20:35;;;;;;;0.20;0.20;;;;;;;;;;10169714;29;20078;-66
2020/12/30 23:25:37;;;;;;;0.30;0.30;;;;;;;;;;10168848;29;21226;-67
2020/12/30 23:30:39;;;;;;;0.30;0.30;;;;;;;;;;10168819;29;20064;-67
2020/12/30 23:35:41;;;;;;;0.20;0.20;;;;;;;;;;10166377;29;20135;-64
2020/12/30 23:40:43;;;;;;;0.37;0.37;;;;;;;;;;10167815;29;20052;-64
2020/12/30 23:45:45;;;;;;;0.30;0.30;;;;;;;;;;10167251;29;20481;-64
2020/12/30 23:50:47;;;;;;;0.40;0.40;;;;;;;;;;10167990;29;20080;-65
2020/12/30 23:55:49;;;;;;;0.60;0.60;;;;;;;;;;10167215;29;20067;-65
